createdAt,value
2022-08-12T00:02:28.949Z,28.30
2022-08-12T00:05:15.401Z,28.30
2022-08-12T00:08:01.386Z,28.20
2022-08-12T00:10:47.339Z,28.20
2022-08-12T00:13:33.776Z,28.20
2022-08-12T00:16:26.564Z,28.40
2022-08-12T00:19:12.580Z,28.80
2022-08-12T00:21:59.971Z,29.20
2022-08-12T00:24:45.790Z,29.00
2022-08-12T00:27:43.463Z,29.40
2022-08-12T00:30:31.896Z,29.50
2022-08-12T00:33:22.141Z,29.50
2022-08-12T00:36:18.668Z,29.40
2022-08-12T00:39:18.546Z,29.30
2022-08-12T00:42:06.484Z,29.70
2022-08-12T00:44:35.190Z,30.10
2022-08-12T00:47:04.357Z,30.40
2022-08-12T00:49:35.080Z,30.50
2022-08-12T00:52:07.379Z,30.60
2022-08-12T00:54:39.523Z,30.70
2022-08-12T00:57:13.495Z,30.70
2022-08-12T00:59:51.054Z,31.10
2022-08-12T01:02:25.141Z,31.30
2022-08-12T01:05:16.596Z,31.70
2022-08-12T01:08:05.349Z,31.70
2022-08-12T01:10:55.174Z,31.70
2022-08-12T01:13:25.121Z,32.00
2022-08-12T01:15:56.860Z,32.10
2022-08-12T01:18:28.414Z,32.30
2022-08-12T01:21:13.014Z,32.60
2022-08-12T01:24:28.209Z,32.80
2022-08-12T01:26:55.853Z,32.70
2022-08-12T01:29:35.102Z,32.90
2022-08-12T01:32:09.195Z,32.70
2022-08-12T01:34:40.743Z,32.70
2022-08-12T01:37:11.462Z,32.80
2022-08-12T01:40:31.647Z,32.60
2022-08-12T01:42:47.042Z,32.90
2022-08-12T01:45:18.269Z,32.70
2022-08-12T01:48:03.759Z,33.00
2022-08-12T01:50:52.002Z,33.30
2022-08-12T01:53:25.851Z,33.30
2022-08-12T01:55:56.754Z,33.50
2022-08-12T01:58:51.726Z,33.50
2022-08-12T02:01:26.246Z,33.40
2022-08-12T02:04:27.489Z,33.50
2022-08-12T02:07:27.509Z,33.60
2022-08-12T02:10:50.111Z,33.50
2022-08-12T02:13:48.510Z,33.60
2022-08-12T02:16:50.691Z,33.90
2022-08-12T02:19:36.152Z,33.90
2022-08-12T02:22:23.774Z,34.00
2022-08-12T02:24:55.233Z,34.20
2022-08-12T02:27:27.939Z,34.20
2022-08-12T02:29:56.465Z,34.60
2022-08-12T02:32:26.684Z,34.80
2022-08-12T02:34:57.263Z,34.70
2022-08-12T02:37:27.997Z,34.70
2022-08-12T02:40:03.795Z,34.70
2022-08-12T02:42:36.075Z,34.70
2022-08-12T02:45:08.760Z,34.80
2022-08-12T02:47:58.780Z,34.90
2022-08-12T02:50:35.190Z,34.70
2022-08-12T02:53:06.093Z,35.10
2022-08-12T02:55:37.460Z,35.20
2022-08-12T02:58:12.496Z,35.30
2022-08-12T03:00:45.299Z,35.50
2022-08-12T03:03:17.045Z,35.50
2022-08-12T03:06:07.282Z,35.50
2022-08-12T03:08:42.350Z,35.80
2022-08-12T03:11:20.788Z,35.80
2022-08-12T03:13:58.548Z,36.00
2022-08-12T03:16:30.473Z,36.10
2022-08-12T03:19:04.067Z,36.20
2022-08-12T03:21:55.714Z,36.40
2022-08-12T03:24:28.137Z,36.60
2022-08-12T03:27:00.309Z,37.00
2022-08-12T03:29:43.336Z,37.20
2022-08-12T03:32:35.272Z,37.40
2022-08-12T03:35:36.917Z,37.70
2022-08-12T03:38:05.524Z,37.90
2022-08-12T03:41:08.888Z,38.00
2022-08-12T03:44:06.776Z,38.10
2022-08-12T03:46:57.775Z,38.20
2022-08-12T03:49:44.478Z,38.10
2022-08-12T03:52:31.736Z,38.40
2022-08-12T03:55:17.868Z,38.50
2022-08-12T03:58:04.032Z,38.50
2022-08-12T04:00:36.142Z,38.50
2022-08-12T04:03:25.664Z,38.50
2022-08-12T04:05:56.755Z,38.80
2022-08-12T04:08:30.397Z,38.90
2022-08-12T04:11:17.998Z,38.70
2022-08-12T04:13:49.602Z,38.90
2022-08-12T04:16:19.129Z,39.00
2022-08-12T04:18:49.074Z,39.10
2022-08-12T04:21:17.939Z,39.40
2022-08-12T04:23:49.058Z,39.50
2022-08-12T04:26:17.814Z,39.40
2022-08-12T04:28:46.358Z,39.60
2022-08-12T04:31:15.396Z,39.80
2022-08-12T04:33:45.093Z,39.90
2022-08-12T04:36:13.919Z,40.10
2022-08-12T04:38:44.081Z,40.00
2022-08-12T04:41:14.308Z,40.30
2022-08-12T04:43:59.639Z,40.70
2022-08-12T04:46:30.944Z,40.90
2022-08-12T04:49:04.021Z,40.70
2022-08-12T04:51:33.450Z,40.50
2022-08-12T04:54:03.571Z,40.30
2022-08-12T04:56:35.865Z,40.10
2022-08-12T04:59:05.528Z,40.30
2022-08-12T05:01:34.224Z,40.40
2022-08-12T05:04:03.741Z,40.20
2022-08-12T05:06:32.869Z,40.50
2022-08-12T05:09:02.012Z,40.70
2022-08-12T05:11:53.577Z,40.50
2022-08-12T05:14:22.547Z,40.20
2022-08-12T05:16:51.030Z,40.10
2022-08-12T05:19:22.572Z,39.80
2022-08-12T05:21:51.339Z,40.50
2022-08-12T05:24:19.810Z,40.50
2022-08-12T05:26:49.644Z,41.00
2022-08-12T05:30:07.293Z,40.50
2022-08-12T05:32:08.795Z,40.10
2022-08-12T05:34:37.232Z,40.20
2022-08-12T05:37:06.088Z,40.00
2022-08-12T05:39:35.261Z,40.00
2022-08-12T05:42:05.732Z,39.70
2022-08-12T05:44:34.285Z,39.90
2022-08-12T05:47:02.818Z,39.70
2022-08-12T05:49:33.303Z,39.40
2022-08-12T05:52:02.868Z,38.70
2022-08-12T05:54:54.627Z,38.00
2022-08-12T05:57:21.235Z,38.20
2022-08-12T05:59:49.658Z,37.40
2022-08-12T06:02:18.054Z,37.30
2022-08-12T06:04:47.107Z,37.10
2022-08-12T06:07:42.811Z,37.10
2022-08-12T06:10:04.815Z,36.50
2022-08-12T06:12:34.658Z,36.30
2022-08-12T06:15:03.368Z,35.40
2022-08-12T06:17:32.208Z,34.40
2022-08-12T06:20:26.237Z,34.00
2022-08-12T06:22:55.318Z,33.30
2022-08-12T06:25:27.830Z,33.00
2022-08-12T06:28:07.571Z,32.60
2022-08-12T06:30:39.398Z,31.30
2022-08-12T06:33:55.079Z,30.70
2022-08-12T06:35:58.927Z,30.30
2022-08-12T06:38:29.297Z,29.40
2022-08-12T06:41:18.729Z,28.30
2022-08-12T06:44:05.089Z,28.10
2022-08-12T06:46:36.919Z,27.20
2022-08-12T06:49:07.018Z,26.00
2022-08-12T06:51:35.654Z,24.70
2022-08-12T06:54:04.420Z,24.60
2022-08-12T06:57:02.578Z,23.10
2022-08-12T06:59:27.299Z,21.90
2022-08-12T07:01:55.959Z,19.60
2022-08-12T07:04:39.905Z,19.50
2022-08-12T07:07:10.815Z,20.40
2022-08-12T07:10:05.426Z,19.30
2022-08-12T07:12:32.647Z,18.50
2022-08-12T07:15:02.827Z,18.30
2022-08-12T07:17:36.197Z,17.00
2022-08-12T07:20:06.694Z,16.10
2022-08-12T07:22:35.234Z,15.20
2022-08-12T07:25:21.326Z,15.30
2022-08-12T07:27:55.848Z,14.40
2022-08-12T07:30:25.959Z,13.70
2022-08-12T07:32:57.464Z,14.10
2022-08-12T07:35:30.947Z,13.30
2022-08-12T07:38:00.861Z,14.10
2022-08-12T07:40:31.066Z,13.20
2022-08-12T07:42:59.896Z,14.10
2022-08-12T07:45:29.859Z,13.70
2022-08-12T07:47:59.054Z,12.80
2022-08-12T07:50:27.533Z,12.70
2022-08-12T07:52:55.940Z,13.00
2022-08-12T07:55:24.328Z,12.20
2022-08-12T07:57:58.005Z,12.40
2022-08-12T08:00:27.847Z,12.40
2022-08-12T08:02:58.716Z,12.20
2022-08-12T08:05:33.505Z,12.20
2022-08-12T08:08:04.582Z,12.00
2022-08-12T08:10:33.473Z,11.10
2022-08-12T08:13:05.306Z,11.00
2022-08-12T08:18:27.491Z,10.50
2022-08-12T08:20:57.892Z,10.80
2022-08-12T08:23:46.443Z,10.80
2022-08-12T08:26:16.530Z,9.90
2022-08-12T08:28:45.343Z,9.30
2022-08-12T08:31:15.040Z,9.70
2022-08-12T08:34:01.344Z,9.20
2022-08-12T08:36:33.259Z,8.80
2022-08-12T08:39:01.715Z,8.40
2022-08-12T08:42:17.883Z,8.40
2022-08-12T08:44:49.706Z,8.00
2022-08-12T08:47:26.439Z,9.00
2022-08-12T08:50:01.171Z,8.90
2022-08-12T08:52:39.496Z,9.00
2022-08-12T08:55:10.818Z,8.90
2022-08-12T08:57:43.672Z,9.20
2022-08-12T09:00:15.904Z,8.00
2022-08-12T09:02:58.453Z,8.20
2022-08-12T09:06:02.480Z,8.90
2022-08-12T09:08:27.604Z,7.30
2022-08-12T09:11:00.172Z,7.90
2022-08-12T09:14:12.293Z,7.80
2022-08-12T09:16:23.405Z,6.80
2022-08-12T09:18:52.484Z,7.00
2022-08-12T09:21:24.254Z,7.20
2022-08-12T09:23:59.789Z,6.50
2022-08-12T09:30:10.831Z,6.30
2022-08-12T09:32:31.315Z,6.80
2022-08-12T09:35:01.239Z,6.60
2022-08-12T09:37:57.854Z,6.90
2022-08-12T09:41:02.491Z,6.90
2022-08-12T09:43:35.263Z,6.70
2022-08-12T09:46:11.357Z,6.70
2022-08-12T09:48:56.203Z,7.40
2022-08-12T09:51:38.385Z,6.80
2022-08-12T09:54:33.246Z,7.10
2022-08-12T09:58:08.071Z,6.40
2022-08-12T10:00:12.819Z,7.20
2022-08-12T10:03:05.828Z,6.80
2022-08-12T10:06:19.886Z,5.60
2022-08-12T10:08:30.900Z,5.00
2022-08-12T10:11:20.883Z,5.70
2022-08-12T10:13:52.877Z,5.60
2022-08-12T10:16:23.919Z,6.00
2022-08-12T10:18:55.146Z,4.90
2022-08-12T10:21:37.201Z,5.60
2022-08-12T10:24:08.410Z,4.40
2022-08-12T10:26:57.916Z,4.70
2022-08-12T10:30:38.641Z,4.50
2022-08-12T10:32:45.316Z,3.00
2022-08-12T10:35:16.941Z,3.90
2022-08-12T10:38:36.412Z,4.40
2022-08-12T10:40:55.912Z,4.50
2022-08-12T10:43:54.283Z,4.80
2022-08-12T10:46:30.481Z,4.70
2022-08-12T10:49:06.357Z,4.90
2022-08-12T10:52:33.209Z,4.60
2022-08-12T10:54:42.610Z,4.10
2022-08-12T10:57:18.287Z,3.80
2022-08-12T11:00:30.332Z,3.40
2022-08-12T11:04:23.463Z,3.90
2022-08-12T11:07:08.852Z,3.30
2022-08-12T11:08:42.198Z,3.20
2022-08-12T11:12:07.750Z,2.10
2022-08-12T11:14:08.670Z,2.00
2022-08-12T11:17:34.693Z,1.80
2022-08-12T11:19:46.646Z,2.20
2022-08-12T11:22:18.126Z,2.00
2022-08-12T11:24:53.690Z,2.70
2022-08-12T11:27:23.753Z,2.00
2022-08-12T11:30:02.798Z,2.50
2022-08-12T11:32:38.760Z,2.10
2022-08-12T11:35:11.456Z,2.40
2022-08-12T11:37:57.726Z,2.00
2022-08-12T11:40:28.565Z,2.20
2022-08-12T11:43:11.905Z,2.60
2022-08-12T11:45:52.961Z,2.40
2022-08-12T11:48:27.164Z,2.20
2022-08-12T11:50:57.017Z,1.90
2022-08-12T11:53:59.654Z,1.60
2022-08-12T11:56:13.959Z,2.40
2022-08-12T12:02:02.603Z,3.00
2022-08-12T12:04:28.697Z,3.80
2022-08-12T12:07:06.634Z,3.70
2022-08-12T12:09:52.202Z,3.80
2022-08-12T12:12:22.995Z,3.80
2022-08-12T12:14:54.256Z,4.50
2022-08-12T12:17:24.600Z,4.30
2022-08-12T12:19:55.395Z,4.50
2022-08-12T12:22:27.065Z,3.50
2022-08-12T12:24:59.477Z,4.10
2022-08-12T12:28:04.589Z,3.70
2022-08-12T12:30:35.874Z,2.80
2022-08-12T12:33:07.288Z,2.70
2022-08-12T12:36:16.506Z,2.80
2022-08-12T12:38:26.951Z,2.50
2022-08-12T12:41:14.496Z,2.50
2022-08-12T12:44:03.778Z,3.20
2022-08-12T12:46:32.968Z,3.20
2022-08-12T12:49:01.375Z,3.40
2022-08-12T12:51:48.807Z,3.30
2022-08-12T12:54:18.858Z,3.20
2022-08-12T12:56:54.464Z,3.70
2022-08-12T12:59:33.779Z,3.40
2022-08-12T13:02:13.088Z,3.00
2022-08-12T13:05:00.146Z,4.10
2022-08-12T13:07:49.280Z,2.40
2022-08-12T13:10:18.906Z,1.70
2022-08-12T13:12:52.787Z,1.00
2022-08-12T13:15:42.848Z,1.30
2022-08-12T13:18:11.078Z,1.10
2022-08-12T13:20:43.216Z,1.90
2022-08-12T13:23:37.338Z,2.40
2022-08-12T13:26:04.939Z,2.50
2022-08-12T13:28:33.615Z,2.80
2022-08-12T13:31:03.127Z,2.80
2022-08-12T13:34:28.478Z,3.30
2022-08-12T13:36:21.475Z,3.60
2022-08-12T13:38:54.599Z,3.80
2022-08-12T13:41:35.866Z,4.40
2022-08-12T13:44:07.206Z,4.30
2022-08-12T13:46:40.995Z,4.50
2022-08-12T13:49:53.441Z,4.50
2022-08-12T13:52:05.270Z,4.30
2022-08-12T13:54:35.282Z,3.90
2022-08-12T13:57:03.806Z,3.70
2022-08-12T13:59:48.278Z,3.30
2022-08-12T14:02:17.556Z,3.20
2022-08-12T14:04:56.422Z,2.20
2022-08-12T14:07:27.602Z,1.00
2022-08-12T14:10:16.267Z,1.30
2022-08-12T14:12:54.008Z,1.30
2022-08-12T14:15:36.515Z,1.90
2022-08-12T14:18:14.170Z,1.00
2022-08-12T14:20:47.519Z,1.00
2022-08-12T14:24:05.018Z,1.00
2022-08-12T14:26:11.885Z,1.00
2022-08-12T14:28:45.157Z,1.00
2022-08-12T14:31:31.388Z,1.00
2022-08-12T14:34:05.005Z,1.00
2022-08-12T14:36:34.254Z,1.00
2022-08-12T14:39:06.621Z,1.00
2022-08-12T14:41:48.590Z,1.00
2022-08-12T14:44:57.970Z,1.70
2022-08-12T14:47:13.912Z,1.50
2022-08-12T14:50:33.872Z,1.00
2022-08-12T14:53:42.403Z,1.00
2022-08-12T14:58:13.437Z,1.00
2022-08-12T15:01:00.190Z,1.00
2022-08-12T15:03:52.700Z,1.00
2022-08-12T15:06:39.880Z,1.00
2022-08-12T15:09:12.176Z,1.00
2022-08-12T15:11:55.152Z,1.00
2022-08-12T15:14:27.584Z,1.00
2022-08-12T15:17:00.162Z,1.00
2022-08-12T15:20:31.284Z,1.00
2022-08-12T15:22:37.267Z,1.00
2022-08-12T15:25:09.000Z,1.00
2022-08-12T15:28:04.321Z,1.00
2022-08-12T15:30:34.201Z,1.00
2022-08-12T15:33:12.688Z,1.00
2022-08-12T15:35:50.338Z,1.00
2022-08-12T15:38:24.418Z,1.00
2022-08-12T15:40:54.694Z,1.20
2022-08-12T15:43:50.941Z,1.00
2022-08-12T15:46:15.528Z,1.00
2022-08-12T15:48:46.725Z,1.00
2022-08-12T15:51:59.921Z,1.70
2022-08-12T15:54:33.220Z,1.50
2022-08-12T15:57:05.609Z,1.80
2022-08-12T16:00:02.301Z,2.30
2022-08-12T16:02:26.755Z,1.40
2022-08-12T16:04:55.902Z,1.20
2022-08-12T16:07:26.220Z,1.00
2022-08-12T16:10:07.121Z,1.50
2022-08-12T16:12:54.761Z,1.80
2022-08-12T16:15:29.612Z,1.80
2022-08-12T16:18:14.767Z,1.80
2022-08-12T16:20:48.629Z,1.70
2022-08-12T16:23:26.289Z,1.90
2022-08-12T16:26:05.265Z,2.30
2022-08-12T16:28:42.697Z,2.60
2022-08-12T16:31:18.680Z,2.10
2022-08-12T16:33:59.346Z,2.40
2022-08-12T16:36:30.223Z,2.60
2022-08-12T16:39:01.278Z,2.00
2022-08-12T16:41:38.149Z,1.50
2022-08-12T16:44:09.127Z,1.50
2022-08-12T16:46:38.256Z,1.00
2022-08-12T16:49:13.186Z,1.00
2022-08-12T16:51:46.740Z,1.00
2022-08-12T16:54:18.441Z,1.00
2022-08-12T16:56:55.006Z,1.00
2022-08-12T16:59:53.413Z,1.30
2022-08-12T17:02:31.715Z,1.10
2022-08-12T17:05:05.703Z,1.40
2022-08-12T17:07:38.213Z,1.50
2022-08-12T17:10:18.462Z,1.60
2022-08-12T17:13:10.237Z,1.00
2022-08-12T17:15:57.915Z,1.00
2022-08-12T17:18:43.488Z,1.00
2022-08-12T17:21:40.118Z,2.10
2022-08-12T17:24:15.014Z,2.70
2022-08-12T17:26:49.614Z,4.00
2022-08-12T17:29:31.940Z,4.70
2022-08-12T17:32:11.384Z,5.30
2022-08-12T17:34:59.085Z,6.40
2022-08-12T17:37:29.927Z,7.10
2022-08-12T17:40:15.728Z,7.70
2022-08-12T17:42:48.517Z,8.50
2022-08-12T17:45:19.769Z,8.90
2022-08-12T17:48:05.501Z,9.10
2022-08-12T17:50:38.680Z,9.40
2022-08-12T17:53:10.047Z,9.70
2022-08-12T17:55:47.707Z,10.30
2022-08-12T17:58:18.453Z,10.30
2022-08-12T18:00:51.723Z,10.50
2022-08-12T18:03:57.527Z,10.30
2022-08-12T18:06:14.725Z,10.10
2022-08-12T18:08:54.801Z,10.10
2022-08-12T18:12:03.698Z,9.90
2022-08-12T18:14:31.778Z,10.20
2022-08-12T18:17:02.500Z,10.00
2022-08-12T18:19:34.219Z,10.20
2022-08-12T18:22:21.709Z,10.40
2022-08-12T18:25:03.871Z,10.40
2022-08-12T18:27:46.696Z,10.30
2022-08-12T18:30:28.887Z,10.50
2022-08-12T18:33:07.355Z,10.60
2022-08-12T18:35:53.833Z,10.70
2022-08-12T18:38:27.906Z,10.80
2022-08-12T18:41:21.742Z,11.00
2022-08-12T18:44:02.503Z,11.20
2022-08-12T18:46:53.996Z,11.20
2022-08-12T18:49:31.606Z,11.20
2022-08-12T18:52:04.164Z,11.40
2022-08-12T18:54:36.054Z,11.30
2022-08-12T18:57:15.479Z,11.50
2022-08-12T19:00:01.390Z,11.50
2022-08-12T19:02:40.645Z,11.90
2022-08-12T19:05:14.277Z,11.90
2022-08-12T19:07:57.809Z,12.60
2022-08-12T19:10:32.733Z,12.90
2022-08-12T19:13:24.519Z,13.30
2022-08-12T19:15:58.118Z,13.60
2022-08-12T19:18:31.090Z,14.20
2022-08-12T19:21:06.298Z,14.30
2022-08-12T19:23:40.656Z,14.60
2022-08-12T19:26:12.504Z,14.80
2022-08-12T19:28:43.793Z,14.90
2022-08-12T19:31:57.942Z,15.20
2022-08-12T19:35:53.872Z,15.60
2022-08-12T19:38:02.444Z,16.10
2022-08-12T19:40:32.655Z,16.50
2022-08-12T19:43:19.399Z,17.10
2022-08-12T19:45:56.244Z,17.40
2022-08-12T19:48:30.800Z,18.00
2022-08-12T19:51:22.533Z,18.50
2022-08-12T19:53:57.551Z,18.60
2022-08-12T19:56:28.410Z,18.60
2022-08-12T19:59:13.367Z,18.80
2022-08-12T20:02:03.184Z,19.00
2022-08-12T20:04:37.422Z,19.10
2022-08-12T20:07:09.254Z,19.20
2022-08-12T20:09:54.213Z,19.40
2022-08-12T20:12:31.822Z,19.80
2022-08-12T20:15:05.652Z,20.00
2022-08-12T20:17:50.439Z,19.80
2022-08-12T20:20:27.761Z,19.90
2022-08-12T20:22:58.123Z,20.00
2022-08-12T20:25:52.178Z,20.30
2022-08-12T20:28:21.695Z,20.70
2022-08-12T20:31:00.824Z,20.80
2022-08-12T20:33:56.268Z,21.60
2022-08-12T20:36:43.028Z,21.70
2022-08-12T20:39:52.219Z,21.80
2022-08-12T20:42:10.993Z,21.90
2022-08-12T20:44:43.444Z,22.20
2022-08-12T20:47:20.119Z,22.40
2022-08-12T20:49:55.386Z,22.40
2022-08-12T20:52:30.494Z,22.70
2022-08-12T20:55:03.290Z,23.00
2022-08-12T20:57:38.120Z,23.60
2022-08-12T21:00:14.314Z,23.50
2022-08-12T21:02:45.875Z,23.40
2022-08-12T21:06:12.483Z,23.70
2022-08-12T21:08:41.234Z,24.00
2022-08-12T21:11:10.616Z,24.20
2022-08-12T21:13:41.904Z,25.00
2022-08-12T21:16:11.494Z,24.50
2022-08-12T21:18:40.043Z,24.80
2022-08-12T21:21:23.101Z,24.80
2022-08-12T21:23:56.552Z,25.40
2022-08-12T21:26:28.463Z,25.40
2022-08-12T21:29:01.748Z,25.90
2022-08-12T21:32:39.687Z,26.40
2022-08-12T21:34:29.142Z,26.80
2022-08-12T21:37:13.003Z,27.10
2022-08-12T21:39:56.833Z,27.20
2022-08-12T21:42:26.281Z,27.10
2022-08-12T21:45:43.788Z,27.00
2022-08-12T21:47:46.377Z,26.90
2022-08-12T21:50:18.305Z,27.10
2022-08-12T21:52:50.155Z,27.30
2022-08-12T21:55:20.428Z,27.30
2022-08-12T21:57:54.712Z,27.30
2022-08-12T22:00:35.115Z,27.20
2022-08-12T22:04:02.279Z,27.50
2022-08-12T22:06:30.547Z,27.70
2022-08-12T22:09:15.695Z,27.80
2022-08-12T22:11:56.298Z,28.00
2022-08-12T22:14:30.006Z,28.40
2022-08-12T22:17:01.537Z,28.50
2022-08-12T22:19:35.102Z,28.70
2022-08-12T22:22:05.831Z,28.90
2022-08-12T22:24:35.987Z,29.10
2022-08-12T22:27:22.912Z,29.50
2022-08-12T22:30:19.611Z,29.80
2022-08-12T22:32:50.647Z,30.30
2022-08-12T22:35:56.575Z,30.70
2022-08-12T22:38:29.044Z,30.90
2022-08-12T22:41:02.228Z,31.00
2022-08-12T22:43:58.604Z,31.30
2022-08-12T22:46:52.031Z,31.20
2022-08-12T22:49:36.555Z,31.20
2022-08-12T22:52:14.291Z,31.50
2022-08-12T22:55:03.876Z,31.70
2022-08-12T22:57:49.339Z,31.90
2022-08-12T23:00:27.581Z,32.10
2022-08-12T23:03:00.816Z,33.00
2022-08-12T23:05:57.503Z,32.90
2022-08-12T23:08:24.114Z,33.20
2022-08-12T23:10:59.326Z,33.40
2022-08-12T23:13:54.760Z,33.40
2022-08-12T23:16:31.043Z,33.50
2022-08-12T23:19:10.787Z,33.60
2022-08-12T23:22:06.482Z,33.70
2022-08-12T23:24:56.449Z,34.20
2022-08-12T23:27:50.702Z,34.30
2022-08-12T23:30:31.964Z,34.40
2022-08-12T23:33:13.210Z,34.40
2022-08-12T23:35:59.006Z,34.40
2022-08-12T23:38:33.057Z,34.60
2022-08-12T23:41:03.899Z,34.20
2022-08-12T23:43:39.279Z,34.30
2022-08-12T23:46:19.468Z,34.10
2022-08-12T23:48:51.644Z,33.90
2022-08-12T23:51:24.576Z,34.20
2022-08-12T23:53:56.419Z,34.40
2022-08-12T23:56:33.818Z,34.60
2022-08-12T23:59:03.337Z,34.70
